الصفحة الرئيسية
METAR-TAF:

METAR-TAF

مطار :

Dalhart Municipal Airport

دالهارت, تكساس, الولايات المتحدة

دائرة عرض: 36-01-24N, خط طول: 102-32-50W, ارتفاع: 1216 متر

مراقبة الطقس الحالي

تاريخ ووقت الإصدار 24 دقيقة قبل الساعة 22:53UTC
رياح هادئة
درجة الحرارة 18°درجة مئوية
الرطوبة 20%
ضغط 1013 hPa
الرؤية: 16.1 كم
سماء صافية

METAR: KDHT 232253Z AUTO 00000KT 10SM CLR 18/M05 A2990 RMK AO2 SLP103 T01831050

زمن: 18:17 (23:17 UTC)

توقعات

تاريخ ووقت الإصدار 5ساعات و 52 دقيقة قبل الساعة 17:25UTC
التوقعات صالحة من23 الساعة 18 UTC إلى 24 الساعة 18 UTC
ريح 8 عقدة من الغرب
الرؤية: 10 كم
سماء صافية
من 24 الساعة 0200 UTC
ريح 7 عقدة من الجنوب الشرقي
الرؤية: 10 كم
غيوم قليلة على ارتفاع 25000 قدم
من 24 الساعة 0600 UTC
ريح 7 عقدة من الشمال
الرؤية: 10 كم
سماء صافية

TAF: KDHT 231725Z 2318/2418 28008KT P6SM SKC FM240200 13007KT P6SM FEW250 FM240600 35007KT P6SM SKC

أرصاد الطقس والتوقعات من أكثر من 4000 مطار (تقارير الطقس للمطار METAR والتنبؤ بالطقس بالمطارTAF).

المحطات المتاحة هي النقط الصفراء والحمراء على الخريطة.

حرك المؤشر فوق النقطة لمعرفة اسم المحطة.

ثم انقر لمعرفة أرصاد وتوقعات الطقس.

لتغيير الخارطة: اضغط على الأزرار الخضراء مع رمز الصليب الأسود للتكبير. على الزر الأخضر مع شرطة للتصغير، أو على الأسهم الخضراء للخرائط المجاورة.


METAR-TAF: